createdAt,value
2017-12-21T00:00:50.846Z,54.35
2017-12-21T00:03:18.486Z,60.28
2017-12-21T00:05:46.166Z,61.28
2017-12-21T00:08:13.868Z,51.33
2017-12-21T00:10:41.639Z,52.05
2017-12-21T00:13:09.313Z,53.38
2017-12-21T00:15:37.770Z,54.28
2017-12-21T00:18:05.438Z,50.08
2017-12-21T00:20:33.043Z,48.28
2017-12-21T00:23:00.641Z,53.05
2017-12-21T00:25:28.234Z,50.22
2017-12-21T00:27:55.820Z,52.28
2017-12-21T00:30:23.411Z,49.85
2017-12-21T00:32:51.053Z,50.15
2017-12-21T00:35:18.666Z,50.03
2017-12-21T00:37:46.270Z,53.85
2017-12-21T00:40:14.793Z,57.80
2017-12-21T00:42:43.217Z,56.63
2017-12-21T00:45:11.620Z,58.53
2017-12-21T00:47:39.278Z,63.35
2017-12-21T00:50:06.906Z,57.75
2017-12-21T00:52:34.608Z,57.78
2017-12-21T00:55:03.019Z,63.92
2017-12-21T00:57:30.616Z,63.67
2017-12-21T00:59:58.196Z,62.42
2017-12-21T01:02:26.551Z,65.82
2017-12-21T01:04:54.140Z,62.78
2017-12-21T01:07:22.457Z,63.65
2017-12-21T01:09:50.083Z,68.35
2017-12-21T01:12:17.923Z,72.45
2017-12-21T01:14:45.655Z,70.97
2017-12-21T01:17:13.258Z,65.57
2017-12-21T01:19:40.889Z,68.30
2017-12-21T01:22:08.528Z,61.05
2017-12-21T01:24:36.132Z,60.85
2017-12-21T01:27:03.741Z,59.08
2017-12-21T01:29:32.091Z,56.25
2017-12-21T01:31:59.678Z,61.55
2017-12-21T01:34:28.021Z,65.28
2017-12-21T01:36:55.629Z,67.40
2017-12-21T01:39:23.319Z,72.37
2017-12-21T01:41:51.048Z,64.68
2017-12-21T01:44:20.277Z,66.62
2017-12-21T01:46:48.524Z,65.28
2017-12-21T01:49:17.364Z,58.65
2017-12-21T01:51:46.366Z,59.30
2017-12-21T01:54:15.976Z,59.38
2017-12-21T01:56:45.003Z,62.15
2017-12-21T01:59:13.405Z,59.97
2017-12-21T02:01:41.034Z,67.70
2017-12-21T02:04:08.637Z,62.72
2017-12-21T02:06:36.215Z,65.25
2017-12-21T02:09:03.825Z,68.25
2017-12-21T02:11:32.151Z,67.18
2017-12-21T02:13:59.726Z,68.10
2017-12-21T02:16:27.305Z,66.53
2017-12-21T02:18:54.891Z,64.82
2017-12-21T02:21:23.266Z,60.65
2017-12-21T02:23:51.641Z,68.25
2017-12-21T02:26:20.079Z,60.75
2017-12-21T02:28:47.879Z,66.50
2017-12-21T02:31:15.488Z,64.25
2017-12-21T02:33:43.206Z,63.83
2017-12-21T02:36:10.884Z,70.25
2017-12-21T02:38:39.350Z,60.75
2017-12-21T02:41:07.780Z,65.57
2017-12-21T02:43:35.404Z,61.75
2017-12-21T02:46:03.782Z,58.72
2017-12-21T02:48:32.274Z,60.50
2017-12-21T02:50:59.900Z,68.05
2017-12-21T02:53:27.600Z,63.80
2017-12-21T02:55:55.274Z,55.83
2017-12-21T02:58:22.927Z,57.33
2017-12-21T03:00:50.597Z,48.58
2017-12-21T03:03:19.061Z,52.78
2017-12-21T03:05:46.791Z,54.88
2017-12-21T03:08:14.418Z,54.08
2017-12-21T03:10:42.048Z,51.22
2017-12-21T03:13:10.396Z,49.97
2017-12-21T03:15:38.034Z,57.45
2017-12-21T03:18:05.619Z,45.42
2017-12-21T03:20:33.256Z,44.95
2017-12-21T03:23:00.829Z,47.20
2017-12-21T03:25:28.472Z,53.60
2017-12-21T03:27:56.058Z,45.38
2017-12-21T03:30:23.657Z,47.70
2017-12-21T03:32:52.066Z,53.95
2017-12-21T03:35:19.694Z,49.47
2017-12-21T03:37:48.073Z,51.63
2017-12-21T03:40:16.433Z,48.92
2017-12-21T03:42:44.166Z,56.97
2017-12-21T03:45:11.750Z,50.08
2017-12-21T03:47:39.451Z,49.63
2017-12-21T03:50:07.108Z,51.22
2017-12-21T03:52:34.854Z,49.80
2017-12-21T03:55:03.336Z,49.70
2017-12-21T03:57:32.536Z,49.22
2017-12-21T04:00:02.099Z,46.63
2017-12-21T04:02:29.770Z,45.65
2017-12-21T04:04:57.402Z,49.88
2017-12-21T04:07:25.072Z,46.25
2017-12-21T04:09:52.666Z,44.92
2017-12-21T04:12:20.326Z,44.60
2017-12-21T04:14:48.014Z,45.85
2017-12-21T04:17:16.360Z,46.03
2017-12-21T04:19:43.985Z,39.78
2017-12-21T04:22:11.594Z,44.10
2017-12-21T04:24:39.276Z,45.60
2017-12-21T04:27:06.858Z,43.87
2017-12-21T04:29:34.481Z,45.47
2017-12-21T04:32:02.124Z,47.03
2017-12-21T04:34:29.687Z,45.60
2017-12-21T04:36:57.309Z,42.20
2017-12-21T04:39:24.910Z,42.97
2017-12-21T04:41:52.915Z,44.85
2017-12-21T04:44:20.591Z,49.47
2017-12-21T04:46:49.054Z,47.33
2017-12-21T04:49:16.678Z,48.22
2017-12-21T04:51:44.339Z,53.33
2017-12-21T04:54:12.046Z,58.55
2017-12-21T04:56:39.642Z,57.42
2017-12-21T04:59:07.233Z,57.58
2017-12-21T05:01:34.822Z,54.20
2017-12-21T05:04:02.509Z,58.45
2017-12-21T05:06:30.270Z,60.72
2017-12-21T05:08:57.861Z,63.65
2017-12-21T05:11:25.541Z,61.50
2017-12-21T05:13:53.205Z,58.97
2017-12-21T05:16:20.860Z,69.80
2017-12-21T05:18:48.441Z,57.38
2017-12-21T05:21:16.123Z,68.97
2017-12-21T05:23:43.795Z,55.88
2017-12-21T05:26:12.195Z,60.25
2017-12-21T05:28:39.816Z,56.35
2017-12-21T05:31:07.433Z,63.08
2017-12-21T05:33:35.021Z,64.82
2017-12-21T05:36:02.710Z,55.10
2017-12-21T05:38:30.301Z,55.50
2017-12-21T05:40:57.934Z,61.83
2017-12-21T05:43:25.608Z,53.87
2017-12-21T05:45:53.336Z,62.47
2017-12-21T05:48:20.944Z,62.53
2017-12-21T05:50:48.514Z,54.88
2017-12-21T05:53:16.261Z,60.42
2017-12-21T05:55:43.898Z,56.13
2017-12-21T05:58:11.546Z,57.45
2017-12-21T06:00:39.188Z,57.75
2017-12-21T06:03:07.104Z,56.75
2017-12-21T06:05:35.758Z,57.92
2017-12-21T06:08:03.339Z,57.45
2017-12-21T06:10:30.938Z,56.03
2017-12-21T06:12:58.593Z,52.78
2017-12-21T06:15:27.012Z,58.10
2017-12-21T06:17:54.648Z,55.17
2017-12-21T06:20:22.226Z,54.95
2017-12-21T06:22:49.892Z,48.58
2017-12-21T06:25:17.564Z,48.87
2017-12-21T06:27:45.175Z,46.90
2017-12-21T06:30:12.911Z,46.85
2017-12-21T06:32:40.534Z,54.05
2017-12-21T06:35:08.224Z,51.92
2017-12-21T06:37:35.936Z,52.55
2017-12-21T06:40:03.666Z,44.20
2017-12-21T06:42:31.269Z,50.50
2017-12-21T06:44:58.841Z,45.25
2017-12-21T06:47:28.115Z,46.90
2017-12-21T06:49:56.590Z,50.45
2017-12-21T06:52:24.191Z,52.55
2017-12-21T06:54:51.809Z,44.92
2017-12-21T06:57:19.401Z,40.60
2017-12-21T06:59:46.978Z,44.72
2017-12-21T07:02:14.563Z,42.78
2017-12-21T07:04:42.194Z,47.35
2017-12-21T07:07:10.546Z,45.17
2017-12-21T07:09:38.143Z,43.50
2017-12-21T07:12:05.756Z,44.75
2017-12-21T07:14:34.157Z,42.05
2017-12-21T07:17:01.734Z,45.97
2017-12-21T07:19:29.315Z,40.55
2017-12-21T07:21:56.929Z,39.63
2017-12-21T07:24:24.522Z,45.78
2017-12-21T07:26:52.115Z,39.75
2017-12-21T07:29:19.719Z,38.33
2017-12-21T07:31:47.323Z,41.92
2017-12-21T07:34:15.004Z,40.60
2017-12-21T07:36:42.626Z,40.20
2017-12-21T07:39:10.255Z,37.90
2017-12-21T07:41:37.895Z,36.67
2017-12-21T07:44:05.513Z,35.60
2017-12-21T07:46:33.908Z,32.22
2017-12-21T07:49:03.824Z,35.22
2017-12-21T07:51:31.450Z,34.13
2017-12-21T07:53:59.071Z,34.13
2017-12-21T07:56:26.766Z,37.85
2017-12-21T07:58:56.107Z,36.00
2017-12-21T08:01:23.795Z,35.50
2017-12-21T08:03:53.138Z,35.40
2017-12-21T08:06:21.275Z,34.45
2017-12-21T08:08:49.679Z,35.35
2017-12-21T08:11:18.300Z,32.40
2017-12-21T08:13:46.015Z,38.05
2017-12-21T08:16:41.272Z,34.97
2017-12-21T08:19:09.577Z,37.47
2017-12-21T08:21:37.155Z,36.20
2017-12-21T08:24:04.802Z,38.28
2017-12-21T08:26:32.428Z,31.90
2017-12-21T08:29:00.096Z,36.40
2017-12-21T08:31:27.695Z,33.88
2017-12-21T08:33:55.287Z,36.35
2017-12-21T08:36:22.894Z,38.38
2017-12-21T08:38:50.515Z,33.47
2017-12-21T08:41:18.196Z,36.40
2017-12-21T08:43:45.890Z,40.22
2017-12-21T08:46:13.960Z,34.70
2017-12-21T08:48:41.930Z,36.53
2017-12-21T08:51:14.637Z,36.13
2017-12-21T08:53:59.520Z,36.60
2017-12-21T08:56:27.411Z,34.00
2017-12-21T08:58:56.805Z,38.00
2017-12-21T09:01:24.862Z,41.22
2017-12-21T09:03:53.107Z,45.10
2017-12-21T09:06:20.763Z,37.33
2017-12-21T09:08:49.105Z,39.17
2017-12-21T09:11:16.839Z,42.42
2017-12-21T09:13:44.468Z,39.83
2017-12-21T09:16:12.984Z,42.92
2017-12-21T09:18:40.576Z,40.25
2017-12-21T09:21:08.131Z,44.40
2017-12-21T09:23:36.794Z,45.60
2017-12-21T09:26:05.279Z,40.80
2017-12-21T09:28:33.386Z,41.47
2017-12-21T09:31:01.002Z,41.58
2017-12-21T09:33:30.538Z,45.75
2017-12-21T09:35:58.166Z,42.20
2017-12-21T09:38:25.790Z,42.58
2017-12-21T09:40:53.517Z,43.50
2017-12-21T09:43:21.306Z,48.33
2017-12-21T09:45:51.348Z,42.03
2017-12-21T09:48:19.799Z,43.50
2017-12-21T09:50:47.391Z,44.95
2017-12-21T09:53:15.006Z,47.30
2017-12-21T09:55:42.670Z,45.17
2017-12-21T09:58:14.311Z,43.53
2017-12-21T10:00:54.447Z,49.10
2017-12-21T10:03:26.600Z,44.75
2017-12-21T10:05:54.186Z,44.90
2017-12-21T10:08:21.777Z,47.58
2017-12-21T10:10:49.372Z,44.25
2017-12-21T10:13:16.940Z,46.40
2017-12-21T10:15:51.460Z,46.25
2017-12-21T10:18:19.050Z,43.97
2017-12-21T10:20:48.198Z,36.90
2017-12-21T10:23:15.781Z,36.35
2017-12-21T10:25:43.448Z,45.15
2017-12-21T10:28:12.731Z,41.13
2017-12-21T10:30:40.379Z,41.92
2017-12-21T10:33:08.028Z,43.10
2017-12-21T10:35:35.671Z,51.03
2017-12-21T10:38:04.217Z,46.05
2017-12-21T10:43:25.456Z,41.53
2017-12-21T10:45:53.065Z,42.60
2017-12-21T10:48:20.748Z,42.22
2017-12-21T10:50:57.623Z,46.90
2017-12-21T10:53:26.568Z,44.17
2017-12-21T10:55:54.166Z,42.53
2017-12-21T10:58:21.744Z,43.80
2017-12-21T11:00:49.404Z,38.35
2017-12-21T11:03:16.990Z,41.05
2017-12-21T11:05:44.658Z,40.28
2017-12-21T11:08:12.359Z,41.70
2017-12-21T11:10:40.859Z,41.13
2017-12-21T11:13:09.058Z,41.75
2017-12-21T11:15:36.727Z,40.63
2017-12-21T11:18:05.011Z,42.35
2017-12-21T11:20:33.601Z,43.05
2017-12-21T11:23:01.213Z,39.47
2017-12-21T11:25:28.799Z,35.33
2017-12-21T11:27:57.189Z,35.95
2017-12-21T11:30:38.805Z,41.47
2017-12-21T11:33:10.424Z,34.97
2017-12-21T11:35:38.048Z,35.85
2017-12-21T11:40:39.045Z,40.97
2017-12-21T11:43:06.639Z,33.05
2017-12-21T11:45:34.236Z,37.42
2017-12-21T11:48:14.412Z,34.67
2017-12-21T11:50:42.125Z,34.72
2017-12-21T11:53:09.736Z,37.67
2017-12-21T11:55:37.316Z,33.80
2017-12-21T11:58:04.909Z,34.25
2017-12-21T12:03:07.589Z,38.80
2017-12-21T12:05:53.974Z,35.08
2017-12-21T12:08:21.787Z,37.08
2017-12-21T12:10:50.384Z,35.78
2017-12-21T12:13:24.056Z,31.62
2017-12-21T12:15:53.994Z,29.30
2017-12-21T12:18:21.961Z,24.37
2017-12-21T12:20:50.632Z,28.55
2017-12-21T12:23:19.381Z,27.40
2017-12-21T12:25:47.480Z,28.60
2017-12-21T12:28:15.369Z,26.48
2017-12-21T12:33:29.988Z,25.88
2017-12-21T12:35:58.448Z,30.75
2017-12-21T12:38:33.699Z,27.15
2017-12-21T12:41:24.776Z,44.50
2017-12-21T12:43:52.763Z,30.00
2017-12-21T13:51:06.672Z,42.60
2017-12-21T13:53:42.763Z,41.92
2017-12-21T14:08:54.544Z,32.40
2017-12-21T14:19:33.245Z,38.97
2017-12-21T14:31:12.564Z,34.75
